Time;durP1;ratioP1;P1;durP2;ratioP2;P2;SDS_P1;SDS_P2;PMS_P1;PMS_P2;Temp;Humidity;BMP_temperature;BMP_pressure;BME280_temperature;BME280_humidity;BME280_pressure;Samples;Min_cycle;Max_cycle;Signal;HPM_P1;HPM_P2
2023/03/25 00:00:25;;;;;;;9.00;2.67;;;;;;;8.98;100.00;96635.19;4988006;28;20045;-86
2023/03/25 00:03:09;;;;;;;13.10;2.33;;;;;;;9.03;100.00;96638.91;4999281;28;20109;-86
2023/03/25 00:05:55;;;;;;;7.80;2.10;;;;;;;8.74;100.00;96646.94;4991960;28;20044;-87
2023/03/25 00:08:39;;;;;;;11.35;2.70;;;;;;;8.76;100.00;96639.63;4988851;28;20506;-86
2023/03/25 00:11:23;;;;;;;9.18;2.40;;;;;;;8.92;100.00;96641.41;4984477;28;20045;-86
2023/03/25 00:14:07;;;;;;;14.90;2.50;;;;;;;8.83;100.00;96651.50;4985258;28;20037;-87
2023/03/25 00:16:52;;;;;;;8.98;2.70;;;;;;;9.04;100.00;96640.50;4986952;28;20132;-88
2023/03/25 00:19:36;;;;;;;8.73;2.50;;;;;;;8.85;100.00;96635.59;4986747;28;20468;-87
2023/03/25 00:22:21;;;;;;;11.43;2.40;;;;;;;9.03;100.00;96646.75;5005086;28;20452;-85
2023/03/25 00:25:08;;;;;;;15.00;2.70;;;;;;;9.03;100.00;96642.34;4984168;28;20053;-86
2023/03/25 00:27:52;;;;;;;15.68;2.78;;;;;;;9.07;100.00;96640.03;5002659;28;20083;-85
2023/03/25 00:30:37;;;;;;;12.40;3.50;;;;;;;8.74;100.00;96645.09;4988639;28;20443;-86
2023/03/25 00:33:21;;;;;;;7.07;2.72;;;;;;;8.85;100.00;96635.59;5001977;28;20416;-87
2023/03/25 00:36:06;;;;;;;6.55;2.40;;;;;;;8.48;100.00;96633.50;4998303;28;20049;-87
2023/03/25 00:38:50;;;;;;;15.43;2.60;;;;;;;8.68;100.00;96625.16;4988173;28;20045;-86
2023/03/25 00:41:36;;;;;;;16.70;2.80;;;;;;;8.51;100.00;96640.88;4983935;28;20092;-85
2023/03/25 00:44:21;;;;;;;10.32;2.85;;;;;;;8.76;100.00;96634.41;4988149;28;20081;-86
2023/03/25 00:47:05;;;;;;;6.15;2.05;;;;;;;8.51;100.00;96614.75;4985440;28;20044;-86
2023/03/25 00:49:50;;;;;;;7.45;2.47;;;;;;;8.62;100.00;96634.75;4991038;28;20448;-85
2023/03/25 00:52:34;;;;;;;13.07;2.20;;;;;;;8.70;100.00;96620.47;4990280;28;20083;-85
2023/03/25 00:55:18;;;;;;;9.43;2.22;;;;;;;8.55;100.00;96627.09;4999608;28;20049;-86
2023/03/25 00:58:04;;;;;;;7.50;1.80;;;;;;;8.31;100.00;96621.22;5000357;28;20044;-85
2023/03/25 01:00:48;;;;;;;8.80;2.10;;;;;;;8.44;100.00;96633.16;4994519;28;20061;-85
2023/03/25 01:03:35;;;;;;;6.90;1.65;;;;;;;8.29;100.00;96629.31;5000417;28;20099;-84
2023/03/25 01:06:20;;;;;;;7.68;2.00;;;;;;;8.53;100.00;96618.69;5007369;28;20448;-86
2023/03/25 01:09:07;;;;;;;14.10;2.25;;;;;;;8.35;100.00;96596.19;5005207;28;20072;-85
2023/03/25 01:11:51;;;;;;;6.43;1.85;;;;;;;8.36;100.00;96608.22;4984325;28;20120;-85
2023/03/25 01:14:35;;;;;;;9.07;2.58;;;;;;;8.46;100.00;96632.94;4987187;28;20113;-84
2023/03/25 01:17:19;;;;;;;6.07;1.70;;;;;;;8.28;100.00;96606.03;4987167;28;20397;-85
2023/03/25 01:20:08;;;;;;;4.93;1.77;;;;;;;8.41;100.00;96618.75;5001814;28;20056;-85
2023/03/25 01:22:53;;;;;;;7.22;1.88;;;;;;;8.38;100.00;96626.28;4987022;28;20041;-85
2023/03/25 01:25:37;;;;;;;7.53;1.88;;;;;;;8.29;100.00;96612.84;4983934;28;20100;-85
2023/03/25 01:28:21;;;;;;;7.40;1.92;;;;;;;8.38;100.00;96621.84;4983429;28;20109;-84
2023/03/25 01:31:08;;;;;;;8.45;2.28;;;;;;;8.47;100.00;96621.47;4997918;28;20112;-84
2023/03/25 01:33:53;;;;;;;7.97;2.00;;;;;;;8.26;100.00;96627.16;4996720;28;20053;-83
2023/03/25 01:36:38;;;;;;;7.25;2.13;;;;;;;8.35;100.00;96627.56;5012442;28;20060;-85
2023/03/25 01:39:23;;;;;;;7.25;2.10;;;;;;;8.33;100.00;96645.31;5002421;28;20100;-84
2023/03/25 01:42:06;;;;;;;5.85;1.90;;;;;;;8.32;100.00;96633.28;5002225;28;20052;-85
2023/03/25 01:44:51;;;;;;;12.68;2.25;;;;;;;8.53;100.00;96650.06;5002355;28;20076;-87
2023/03/25 01:47:35;;;;;;;7.00;2.40;;;;;;;8.39;100.00;96651.41;5002401;28;20092;-87
2023/03/25 01:50:20;;;;;;;12.05;2.70;;;;;;;8.45;100.00;96619.06;5017348;28;20455;-85
2023/03/25 01:53:06;;;;;;;12.70;2.60;;;;;;;8.49;100.00;96646.31;5002075;28;20515;-85
2023/03/25 01:55:51;;;;;;;7.57;2.40;;;;;;;8.54;100.00;96654.25;5001941;28;20123;-86
2023/03/25 01:58:35;;;;;;;12.77;2.90;;;;;;;8.56;100.00;96660.06;5002084;28;20049;-86
2023/03/25 02:01:21;;;;;;;9.63;3.60;;;;;;;8.42;100.00;96654.31;5015180;28;20100;-87
2023/03/25 02:04:10;;;;;;;13.43;2.88;;;;;;;8.57;100.00;96645.13;5000799;28;20095;-87
2023/03/25 02:06:56;;;;;;;12.07;2.78;;;;;;;8.36;100.00;96649.28;5015901;28;20040;-85
2023/03/25 02:09:40;;;;;;;7.60;2.55;;;;;;;8.65;100.00;96660.44;5000692;28;20044;-86
2023/03/25 02:12:24;;;;;;;6.90;2.13;;;;;;;8.55;100.00;96642.78;5015680;28;20041;-86
2023/03/25 02:15:09;;;;;;;12.27;2.47;;;;;;;8.43;100.00;96648.06;5000310;28;20048;-85
2023/03/25 02:18:27;;;;;;;9.43;2.10;;;;;;;8.27;100.00;96662.72;5000314;28;20048;-85
2023/03/25 02:21:36;;;;;;;12.77;2.92;;;;;;;8.54;100.00;96662.09;5005624;28;20044;-88
2023/03/25 02:25:00;;;;;;;7.28;2.10;;;;;;;8.53;100.00;96660.50;5002215;28;20153;-86
2023/03/25 02:28:28;;;;;;;5.65;2.03;;;;;;;8.64;100.00;96660.66;5001287;28;20057;-84
2023/03/25 02:31:45;;;;;;;6.45;1.85;;;;;;;8.55;100.00;96657.66;5016360;28;20248;-85
2023/03/25 02:34:52;;;;;;;6.47;1.90;;;;;;;8.70;100.00;96660.50;5016184;28;20111;-85
2023/03/25 02:38:10;;;;;;;5.85;1.95;;;;;;;8.90;100.00;96668.84;5001435;28;20128;-84
2023/03/25 02:41:02;;;;;;;5.38;2.03;;;;;;;8.84;100.00;96644.44;5000610;28;20491;-85
2023/03/25 02:44:01;;;;;;;4.63;2.10;;;;;;;8.91;100.00;96662.56;5013596;28;20049;-85
2023/03/25 02:46:50;;;;;;;10.43;2.25;;;;;;;8.73;100.00;96655.81;4999196;28;20036;-84
2023/03/25 02:49:40;;;;;;;10.45;2.25;;;;;;;8.96;100.00;96658.19;5010336;28;20045;-84
2023/03/25 02:52:28;;;;;;;6.95;2.22;;;;;;;8.98;100.00;96665.81;5014417;28;20139;-85
2023/03/25 02:55:16;;;;;;;6.82;2.00;;;;;;;9.09;100.00;96666.75;5014074;28;20041;-85
2023/03/25 02:58:05;;;;;;;3.08;1.67;;;;;;;8.92;100.00;96648.47;5013746;28;20037;-86
2023/03/25 03:00:52;;;;;;;6.35;2.42;;;;;;;8.90;100.00;96659.19;5013903;28;20049;-85
2023/03/25 03:03:36;;;;;;;8.35;2.33;;;;;;;9.01;100.00;96660.09;5000278;28;20041;-86
2023/03/25 03:06:22;;;;;;;6.40;1.75;;;;;;;8.85;100.00;96652.06;5000398;28;20566;-82
2023/03/25 03:09:10;;;;;;;5.93;1.90;;;;;;;8.88;100.00;96653.41;5000192;28;20036;-83
2023/03/25 03:12:04;;;;;;;4.43;1.85;;;;;;;8.75;100.00;96640.66;4999948;28;20049;-85
2023/03/25 03:15:14;;;;;;;;;;;;;;;8.84;100.00;96649.66;4999194;28;20080;-85
2023/03/25 03:18:13;;;;;;;;;;;;;;;8.92;100.00;96664.16;5003621;28;19921;-85
2023/03/25 03:21:00;;;;;;;;;;;;;;;8.80;100.00;96653.81;4999173;28;19923;-85
2023/03/25 03:23:55;;;;;;;;;;;;;;;8.85;100.00;96664.34;4998623;28;19998;-86
2023/03/25 03:26:52;;;;;;;;;;;;;;;8.92;100.00;96662.34;5012888;28;19948;-85
2023/03/25 03:29:38;;;;;;;;;;;;;;;9.12;100.00;96667.03;5000113;28;20355;-84
2023/03/25 03:32:28;;;;;;;;;;;;;;;8.92;100.00;96674.63;5000100;28;19975;-84
2023/03/25 03:35:22;;;;;;;;;;;;;;;8.88;100.00;96657.84;4999806;28;19967;-84
2023/03/25 03:38:10;;;;;;;;;;;;;;;8.82;100.00;96677.91;5014817;28;19944;-84
2023/03/25 03:41:00;;;;;;;;;;;;;;;8.90;100.00;96658.38;5013374;28;19975;-84
2023/03/25 03:43:50;;;;;;;;;;;;;;;8.99;100.00;96655.09;4999509;28;20013;-84
2023/03/25 03:46:37;;;;;;;;;;;;;;;8.91;100.00;96662.56;4999418;28;19959;-83
2023/03/25 03:49:25;;;;;;;;;;;;;;;8.66;100.00;96680.31;4998874;28;19927;-84
2023/03/25 03:52:12;;;;;;;;;;;;;;;8.68;100.00;96673.03;5013884;28;20020;-84
2023/03/25 03:54:59;;;;;;;;;;;;;;;8.92;100.00;96693.75;5011279;28;20051;-85
2023/03/25 03:57:45;;;;;;;;;;;;;;;8.76;100.00;96674.44;5014446;28;20043;-83
2023/03/25 04:00:36;;;;;;;;;;;;;;;8.97;100.00;96666.84;4999478;28;20336;-84
2023/03/25 04:03:29;;;;;;;;;;;;;;;8.91;100.00;96712.28;4999667;28;20022;-83
2023/03/25 04:06:25;;;;;;;;;;;;;;;8.86;100.00;96684.25;4999492;28;19952;-83
2023/03/25 04:09:26;;;;;;;;;;;;;;;8.83;100.00;96676.88;5012474;28;19920;-83
2023/03/25 04:12:14;;;;;;;;;;;;;;;8.57;100.00;96692.22;5012883;28;19991;-82
2023/03/25 04:15:02;;;;;;;;;;;;;;;8.63;100.00;96691.25;5013817;28;19932;-83
2023/03/25 04:17:46;;;;;;;;;;;;;;;8.79;100.00;96688.84;5013390;28;19921;-83
2023/03/25 04:20:35;;;;;;;;;;;;;;;8.68;100.00;96706.22;4998828;28;19923;-84
2023/03/25 04:23:20;;;;;;;;;;;;;;;8.97;100.00;96706.88;4997762;28;19920;-82
2023/03/25 04:26:04;;;;;;;;;;;;;;;8.78;100.00;96709.00;4997366;28;20293;-84
2023/03/25 04:28:49;;;;;;;;;;;;;;;8.69;100.00;96713.84;5015858;28;19924;-85
2023/03/25 04:31:44;;;;;;;;;;;;;;;-148.14;100.00;65945.72;4998622;28;19920;-87
2023/03/25 04:34:40;;;;;;;;;;;;;;;-148.14;100.00;65945.72;4996808;28;19932;-86
2023/03/25 04:37:35;;;;;;;;;;;;;;;-148.14;100.00;65945.72;4992681;28;19968;-86
2023/03/25 04:40:28;;;;;;;;;;;;;;;-148.14;100.00;65945.72;4991931;28;19963;-87
2023/03/25 04:43:22;;;;;;;;;;;;;;;-148.14;100.00;65945.72;4992103;28;19999;-84
2023/03/25 04:46:11;;;;;;;;;;;;;;;-148.14;100.00;65945.72;4977491;28;19967;-85
2023/03/25 04:48:56;;;;;;;;;;;;;;;-148.14;100.00;65945.72;4991510;28;20398;-86
2023/03/25 04:51:54;;;;;;;;;;;;;;;-148.14;100.00;65945.72;4991185;28;19920;-85
2023/03/25 04:54:51;;;;;;;;;;;;;;;-148.14;100.00;65945.72;4985871;28;19972;-85
2023/03/25 04:57:52;;;;;;;;;;;;;;;-148.14;100.00;65945.72;4977303;28;19920;-85
2023/03/25 05:00:51;;;;;;;;;;;;;;;-148.14;100.00;65945.72;4986794;28;20056;-85
2023/03/25 05:03:49;;;;;;;;;;;;;;;-148.14;100.00;65945.72;4977791;28;19920;-87
2023/03/25 05:06:43;;;;;;;;;;;;;;;-148.14;100.00;65945.72;4984160;28;19968;-87
2023/03/25 05:09:36;;;;;;;;;;;;;;;-148.14;100.00;65945.72;4991193;28;19937;-87
2023/03/25 05:12:29;;;;;;;;;;;;;;;-148.14;100.00;65945.72;4977111;28;20056;-86
2023/03/25 05:15:22;;;;;;;;;;;;;;;-148.14;100.00;65945.72;4978571;28;19925;-86
2023/03/25 05:18:16;;;;;;;;;;;;;;;-148.14;100.00;65945.72;4981340;28;19929;-88
2023/03/25 05:21:10;;;;;;;;;;;;;;;-148.14;100.00;65945.72;4977122;28;19920;-85
2023/03/25 05:24:07;;;;;;;;;;;;;;;-148.14;100.00;65945.72;4977073;28;19972;-87
2023/03/25 05:27:01;;;;;;;;;;;;;;;-148.14;100.00;65945.72;4976714;28;20419;-85
2023/03/25 05:29:58;;;;;;;;;;;;;;;-148.14;100.00;65945.72;4981368;28;19956;-85
2023/03/25 05:32:44;;;;;;;;;;;;;;;6.51;nan;96826.28;4977293;28;19924;-86
2023/03/25 05:35:28;;;;;;;;;;;;;;;6.71;nan;96862.50;4997338;28;19925;-85
2023/03/25 05:38:17;;;;;;;;;;;;;;;6.83;nan;96841.66;5010779;28;20528;-86
2023/03/25 05:41:01;;;;;;;;;;;;;;;6.51;nan;96857.56;5010822;28;19920;-88
2023/03/25 05:43:46;;;;;;;;;;;;;;;6.59;nan;96866.09;4996549;28;19920;-86
2023/03/25 05:46:30;;;;;;;;;;;;;;;6.81;nan;96898.47;5008707;28;19948;-85
2023/03/25 05:49:14;;;;;;;;;;;;;;;6.72;nan;96878.94;5010086;28;19960;-86
2023/03/25 05:51:58;;;;;;;;;;;;;;;6.86;nan;96892.56;4996253;28;19964;-86
2023/03/25 05:54:44;;;;;;;;;;;;;;;6.86;nan;96884.72;5011050;28;19923;-84
2023/03/25 05:57:28;;;;;;;;;;;;;;;6.81;nan;96908.09;4995805;28;20414;-85
2023/03/25 06:00:14;;;;;;;;;;;;;;;6.88;nan;96916.63;4995004;28;20004;-83
2023/03/25 06:02:58;;;;;;;;;;;;;;;6.92;nan;96909.94;5010106;28;20279;-86
2023/03/25 06:05:42;;;;;;;;;;;;;;;6.99;nan;96926.28;5013993;28;20279;-88
2023/03/25 06:08:28;;;;;;;;;;;;;;;7.00;nan;96933.09;4999335;28;19920;-86
2023/03/25 06:11:12;;;;;;;;;;;;;;;6.98;nan;96940.34;5014289;28;19928;-85
2023/03/25 06:13:56;;;;;;;;;;;;;;;6.99;nan;96949.75;4998855;28;19936;-84
2023/03/25 06:16:42;;;;;;;;;;;;;;;7.11;nan;96943.78;4999361;28;19920;-86
2023/03/25 06:19:26;;;;;;;;;;;;;;;6.97;nan;96937.94;5013759;28;19932;-85
2023/03/25 06:22:10;;;;;;;;;;;;;;;7.15;nan;96948.31;4999065;28;19929;-87
2023/03/25 06:24:54;;;;;;;;;;;;;;;7.10;nan;96963.06;4999341;28;19972;-87
2023/03/25 06:27:41;;;;;;;;;;;;;;;7.17;nan;96987.22;5014486;28;19928;-86
2023/03/25 06:30:25;;;;;;;;;;;;;;;7.17;nan;96971.56;4998286;28;19916;-85
2023/03/25 06:33:10;;;;;;;;;;;;;;;7.14;nan;96974.63;4998579;28;19960;-84
2023/03/25 06:36:14;;;;;;;;;;;;;;;7.07;nan;96985.16;4998765;28;20338;-83
2023/03/25 06:39:01;;;;;;;;;;;;;;;7.09;nan;96993.56;4998749;28;19923;-85
2023/03/25 06:41:56;;;;;;;;;;;;;;;7.28;nan;97002.13;5013710;28;19921;-86
2023/03/25 06:44:41;;;;;;;;;;;;;;;7.21;nan;97008.47;4998590;28;19919;-87
2023/03/25 06:47:25;;;;;;;;;;;;;;;7.25;nan;97007.78;4998828;28;19921;-84
2023/03/25 06:50:09;;;;;;;;;;;;;;;7.22;nan;97012.66;4998640;28;19949;-84
2023/03/25 06:52:53;;;;;;;;;;;;;;;7.26;nan;97019.81;4998379;28;20442;-86
2023/03/25 06:55:37;;;;;;;;;;;;;;;7.34;nan;97026.53;4998883;28;19924;-85
2023/03/25 06:58:21;;;;;;;;;;;;;;;7.30;nan;97048.88;5013687;28;19944;-86
2023/03/25 07:01:05;;;;;;;;;;;;;;;7.35;nan;97049.00;4998863;28;19959;-86
2023/03/25 07:03:50;;;;;;;;;;;;;;;7.33;nan;97061.47;4998207;28;20279;-85
2023/03/25 07:06:34;;;;;;;;;;;;;;;7.24;nan;97074.03;5014301;28;20055;-86
2023/03/25 07:09:18;;;;;;;;;;;;;;;7.25;nan;97075.63;5012644;28;20417;-88
2023/03/25 07:12:02;;;;;;;;;;;;;;;7.49;nan;97061.84;4998957;28;19920;-88
2023/03/25 07:14:51;;;;;;;;;;;;;;;7.43;nan;97060.94;4997250;28;19997;-85
2023/03/25 07:17:36;;;;;;;;;;;;;;;7.50;nan;97077.31;4997313;28;19999;-88
2023/03/25 07:20:19;;;;;;;;;;;;;;;7.60;nan;97068.94;4998136;28;20437;-87
2023/03/25 07:23:03;;;;;;;;;;;;;;;7.57;nan;97070.16;5002602;28;19932;-85
2023/03/25 07:25:47;;;;;;;;;;;;;;;7.62;nan;97092.19;5014578;28;19928;-86
2023/03/25 07:28:31;;;;;;;;;;;;;;;7.57;nan;97138.06;4997750;28;19919;-85
2023/03/25 07:31:15;;;;;;;;;;;;;;;7.65;nan;97112.63;4997905;28;19963;-86
2023/03/25 07:34:01;;;;;;;;;;;;;;;7.62;nan;97113.09;4998210;28;20004;-85
2023/03/25 07:36:45;;;;;;;;;;;;;;;7.80;nan;97107.78;4996939;28;19928;-86
2023/03/25 07:39:29;;;;;;;;;;;;;;;7.70;nan;97128.44;4997728;28;19932;-85
2023/03/25 07:42:13;;;;;;;;;;;;;;;7.72;nan;97080.19;4998011;28;19936;-90
2023/03/25 07:44:57;;;;;;;;;;;;;;;7.93;nan;97103.41;5012170;28;19944;-88
2023/03/25 07:47:49;;;;;;;;;;;;;;;7.82;nan;97120.66;4997924;28;19944;-88
2023/03/25 07:50:33;;;;;;;;;;;;;;;7.60;nan;97133.41;4997381;28;19920;-89
2023/03/25 07:53:19;;;;;;;;;;;;;;;7.69;nan;97124.25;5010306;28;21480;-87
2023/03/25 07:56:05;;;;;;;;;;;;;;;7.72;nan;97142.06;4999151;28;19920;-87
2023/03/25 07:58:49;;;;;;;;;;;;;;;7.83;nan;97130.84;4997389;28;19924;-87
2023/03/25 08:01:38;;;;;;;;;;;;;;;8.00;nan;97151.09;4998214;28;20428;-87
2023/03/25 08:04:22;;;;;;;;;;;;;;;7.86;nan;97189.69;4996628;28;20287;-89
2023/03/25 08:07:07;;;;;;;;;;;;;;;8.05;nan;97181.78;4996253;28;20070;-88
2023/03/25 08:09:54;;;;;;;;;;;;;;;7.88;nan;97182.44;5010514;28;19921;-87
2023/03/25 08:12:38;;;;;;;;;;;;;;;8.18;nan;97180.78;5011937;28;19921;-85
2023/03/25 08:15:23;;;;;;;;;;;;;;;7.96;nan;97195.19;4997822;28;20280;-85
2023/03/25 08:18:07;;;;;;;;;;;;;;;8.23;nan;97204.44;4998050;28;19928;-84
2023/03/25 08:21:26;;;;;;;;;;;;;;;8.37;nan;97207.66;5000945;28;19919;-88
2023/03/25 08:24:10;;;;;;;;;;;;;;;8.38;nan;97228.34;4997259;28;20382;-86
2023/03/25 08:26:55;;;;;;;;;;;;;;;8.34;nan;97237.66;5012346;28;20449;-85
2023/03/25 08:29:39;;;;;;;;;;;;;;;8.31;nan;97237.28;5011098;28;19967;-86
2023/03/25 08:32:23;;;;;;;;;;;;;;;8.25;nan;97233.75;4996948;28;19964;-88
2023/03/25 08:35:07;;;;;;;;;;;;;;;8.24;nan;97237.38;5010474;28;19963;-87
2023/03/25 08:37:51;;;;;;;;;;;;;;;8.22;nan;97252.50;4997078;28;19940;-87
2023/03/25 08:40:35;;;;;;;;;;;;;;;8.36;nan;97259.13;4996594;28;19959;-86
2023/03/25 08:43:19;;;;;;;;;;;;;;;8.48;nan;97269.63;5011921;28;19921;-85
2023/03/25 08:46:03;;;;;;;;;;;;;;;8.50;nan;97277.28;4997551;28;19920;-84
2023/03/25 08:48:48;;;;;;;;;;;;;;;8.44;nan;97268.47;5011569;28;19956;-84
2023/03/25 08:51:32;;;;;;;;;;;;;;;8.63;nan;97287.50;4997615;28;20009;-85
2023/03/25 08:54:26;;;;;;;;;;;;;;;8.68;nan;97295.50;4997446;28;20358;-83
2023/03/25 08:57:09;;;;;;;;;;;;;;;8.64;nan;97311.88;5009489;28;19924;-85
2023/03/25 08:59:53;;;;;;;;;;;;;;;8.59;nan;97299.47;5002125;28;19924;-86
2023/03/25 09:02:37;;;;;;;;;;;;;;;8.75;nan;97315.53;5010566;28;19920;-86
2023/03/25 09:05:21;;;;;;;;;;;;;;;8.90;nan;97334.22;4997496;28;20343;-87
2023/03/25 09:08:06;;;;;;;;;;;;;;;9.03;nan;97342.84;5012599;28;20279;-87
2023/03/25 09:10:50;;;;;;;;;;;;;;;9.04;nan;97365.38;5012245;28;19959;-87
2023/03/25 09:13:34;;;;;;;;;;;;;;;9.22;nan;97361.88;4997791;28;19920;-86
2023/03/25 09:16:18;;;;;;;;;;;;;;;8.97;nan;97360.28;4997074;28;19920;-85
2023/03/25 09:19:02;;;;;;;;;;;;;;;8.62;nan;97374.06;4996447;28;19928;-84
2023/03/25 09:21:46;;;;;;;;;;;;;;;8.29;nan;97392.56;5012280;28;19920;-87
2023/03/25 09:24:32;;;;;;;;;;;;;;;8.17;nan;97414.41;4997491;28;19920;-85
2023/03/25 09:27:17;;;;;;;;;;;;;;;8.23;nan;97387.41;4996979;28;20270;-85
2023/03/25 09:30:01;;;;;;;;;;;;;;;8.31;nan;97401.97;4997287;28;19968;-87
2023/03/25 09:32:45;;;;;;;;;;;;;;;8.56;nan;97413.19;4997397;28;19959;-89
2023/03/25 09:35:29;;;;;;;;;;;;;;;8.42;nan;97409.09;5002356;28;19925;-87
2023/03/25 09:38:13;;;;;;;;;;;;;;;8.25;nan;97411.50;4996794;28;19928;-86
2023/03/25 09:40:57;;;;;;;;;;;;;;;8.39;nan;97410.31;5007346;28;20886;-87
2023/03/25 09:43:55;;;;;;;;;;;;;;;8.45;nan;97437.41;5015111;28;20012;-88
2023/03/25 09:46:39;;;;;;;;;;;;;;;8.64;nan;97417.28;4999818;28;19935;-87
2023/03/25 09:49:26;;;;;;;;;;;;;;;8.58;nan;97420.78;4999197;28;19920;-87
2023/03/25 09:52:19;;;;;;;;;;;;;;;8.42;nan;97417.72;4999455;28;19925;-87
2023/03/25 09:55:15;;;;;;;;;;;;;;;8.27;nan;97440.84;5016092;28;19920;-90
2023/03/25 09:58:01;;;;;;;;;;;;;;;8.25;nan;97454.13;5002238;28;19920;-90
2023/03/25 10:00:46;;;;;;;;;;;;;;;8.49;nan;97445.63;5001612;28;19968;-88
2023/03/25 10:03:36;;;;;;;;;;;;;;;8.39;nan;97460.00;5001691;28;19920;-89
2023/03/25 10:06:25;;;;;;;;;;;;;;;8.59;nan;97459.00;5001982;28;20431;-89
2023/03/25 10:12:57;;;;;;;;;;;;;;;9.02;nan;97465.06;5016493;28;19920;-89
2023/03/25 10:15:52;;;;;;;;;;;;;;;9.22;nan;97470.00;5015454;28;19928;-90
2023/03/25 10:18:40;;;;;;;;;;;;;;;9.19;nan;97488.00;5000598;28;19923;-87
2023/03/25 10:21:40;;;;;;;;;;;;;;;8.92;nan;97489.16;4998188;28;19921;-88
2023/03/25 10:24:33;;;;;;;;;;;;;;;9.20;nan;97495.63;4999236;28;20342;-91
2023/03/25 10:27:17;;;;;;;;;;;;;;;9.36;nan;97496.00;4998361;28;19979;-87
2023/03/25 10:30:10;;;;;;;;;;;;;;;9.24;nan;97515.13;4999103;28;19983;-88
2023/03/25 10:32:55;;;;;;;;;;;;;;;9.22;nan;97509.28;5014362;28;19936;-83
2023/03/25 10:35:43;;;;;;;;;;;;;;;9.31;nan;97532.53;4999050;28;19925;-88
2023/03/25 10:38:29;;;;;;;;;;;;;;;9.34;nan;97537.31;5000112;28;20285;-88
2023/03/25 10:41:29;;;;;;;;;;;;;;;9.27;nan;97537.41;5000975;28;19920;-87
2023/03/25 10:44:13;;;;;;;;;;;;;;;9.38;nan;97554.19;5014910;28;19967;-89
2023/03/25 10:47:01;;;;;;;;;;;;;;;9.42;nan;97550.09;5002015;28;20003;-90
2023/03/25 10:49:46;;;;;;;;;;;;;;;9.29;nan;97575.47;4998350;28;19921;-89
2023/03/25 10:52:30;;;;;;;;;;;;;;;9.67;nan;97552.53;4999814;28;19921;-88
2023/03/25 10:55:22;;;;;;;;;;;;;;;9.70;nan;97556.53;4999244;28;19940;-89
2023/03/25 10:58:10;;;;;;;;;;;;;;;9.38;nan;97564.66;4999069;28;20016;-87
2023/03/25 11:00:53;;;;;;;;;;;;;;;9.67;nan;97563.03;4996670;28;19919;-87
2023/03/25 11:03:39;;;;;;;;;;;;;;;9.59;nan;97594.78;4997810;28;19920;-88
2023/03/25 11:06:25;;;;;;;;;;;;;;;9.67;nan;97588.44;5011908;28;20382;-87
2023/03/25 11:09:09;;;;;;;;;;;;;;;9.66;nan;97597.31;4998092;28;20402;-89
2023/03/25 11:11:53;;;;;;;;;;;;;;;9.75;nan;97601.22;4998281;28;19911;-87
2023/03/25 11:14:38;;;;;;;;;;;;;;;9.85;nan;97621.63;5012464;28;19928;-87
2023/03/25 11:17:25;;;;;;;;;;;;;;;9.96;nan;97615.63;5013327;28;19921;-89
2023/03/25 11:20:16;;;;;;;;;;;;;;;9.82;nan;97622.84;5011075;28;19923;-87
2023/03/25 11:23:21;;;;;;;;;;;;;;;9.68;nan;97642.44;4998040;28;20377;-87
2023/03/25 11:26:07;;;;;;;;;;;;;;;9.92;nan;97639.88;4997232;28;19971;-87
2023/03/25 11:29:10;;;;;;;;;;;;;;;9.90;nan;97655.03;5013788;28;20322;-89
2023/03/25 11:31:55;;;;;;;;;;;;;;;10.17;nan;97654.63;5013385;28;19971;-87
2023/03/25 11:34:42;;;;;;;;;;;;;;;10.45;nan;97655.84;4997270;28;19935;-88
2023/03/25 11:37:30;;;;;;;;;;;;;;;10.22;nan;97666.03;4997791;28;19924;-87
2023/03/25 11:40:16;;;;;;;;;;;;;;;10.13;nan;97668.19;4997697;28;20698;-87
2023/03/25 11:43:01;;;;;;;;;;;;;;;10.18;nan;97664.06;4997621;28;19979;-87
2023/03/25 11:45:45;;;;;;;;;;;;;;;10.03;nan;97665.31;5013016;28;19972;-88
2023/03/25 11:48:30;;;;;;;;;;;;;;;9.77;nan;97666.50;4996620;28;19920;-87
2023/03/25 11:51:18;;;;;;;;;;;;;;;9.72;nan;97675.03;4997137;28;19919;-85
2023/03/25 11:54:06;;;;;;;;;;;;;;;9.79;nan;97695.91;5011953;28;19975;-87
2023/03/25 12:00:28;;;;;;;;;;;;;;;9.56;nan;97687.72;4990607;28;19974;-87
2023/03/25 12:03:16;;;;;;;;;;;;;;;9.53;nan;97696.03;4995631;28;19920;-87
2023/03/25 12:06:05;;;;;;;;;;;;;;;9.51;nan;97692.81;5011397;28;19919;-89
2023/03/25 12:08:49;;;;;;;;;;;;;;;9.69;nan;97704.31;5007738;28;19932;-88
2023/03/25 12:11:48;;;;;;;;;;;;;;;10.00;nan;97713.75;5000007;28;19924;-88
2023/03/25 12:18:11;;;;;;;;;;;;;;;9.62;nan;97706.19;5014304;28;19968;-88
2023/03/25 12:20:58;;;;;;;;;;;;;;;9.57;nan;97702.41;5013195;28;19972;-89
2023/03/25 12:24:06;;;;;;;;;;;;;;;9.25;nan;97705.22;4999478;28;20385;-89
2023/03/25 12:26:56;;;;;;;;;;;;;;;9.45;nan;97706.81;4999152;28;19920;-89
2023/03/25 12:30:02;;;;;;;;;;;;;;;9.54;nan;97710.72;4998250;28;19971;-89
2023/03/25 12:33:22;;;;;;;;;;;;;;;;;;;;;
2023/03/25 12:36:16;;;;;;;;;;;;;;;10.19;nan;97715.50;5013856;28;19928;-88
2023/03/25 12:39:18;;;;;;;;;;;;;;;10.41;nan;97718.44;5000008;28;19923;-89
2023/03/25 12:42:09;;;;;;;;;;;;;;;10.60;nan;97724.38;5000950;28;19967;-90
2023/03/25 12:44:56;;;;;;;;;;;;;;;10.64;nan;97711.59;4988462;28;19921;-88
2023/03/25 12:47:40;;;;;;;;;;;;;;;10.76;nan;97714.22;4996038;28;19946;-89
2023/03/25 12:50:30;;;;;;;;;;;;;;;10.62;nan;97714.47;5002247;28;19920;-89
2023/03/25 12:53:18;;;;;;;;;;;;;;;10.48;nan;97719.13;5000057;28;19920;-89
2023/03/25 12:56:02;;;;;;;;;;;;;;;10.53;nan;97721.88;5002338;28;19920;-89
2023/03/25 12:59:01;;;;;;;;;;;;;;;10.90;nan;97717.41;4999318;28;19983;-90
2023/03/25 13:02:11;;;;;;;;;;;;;;;10.97;nan;97716.28;5013939;28;19963;-90
2023/03/25 13:05:14;;;;;;;;;;;;;;;10.76;nan;97724.72;5000842;28;19963;-89
2023/03/25 13:08:10;;;;;;;;;;;;;;;10.93;nan;97723.03;4994579;28;19921;-89
2023/03/25 13:11:21;;;;;;;;;;;;;;;10.86;nan;97723.13;4980875;28;19920;-89
2023/03/25 13:14:10;;;;;;;;;;;;;;;10.95;nan;97720.97;4988909;28;20280;-90
2023/03/25 13:16:56;;;;;;;;;;;;;;;10.83;nan;97726.22;4999046;28;20294;-89
2023/03/25 13:19:43;;;;;;;;;;;;;;;10.81;nan;97749.28;5005784;28;19924;-89
2023/03/25 13:22:30;;;;;;;;;;;;;;;10.63;nan;97736.25;5001413;28;20022;-89
2023/03/25 13:25:21;;;;;;;;;;;;;;;10.59;nan;97746.41;5002872;28;19963;-90
2023/03/25 13:28:10;;;;;;;;;;;;;;;10.69;nan;97741.41;4998157;28;19920;-90
2023/03/25 13:30:57;;;;;;;;;;;;;;;10.77;nan;97742.06;4999122;28;19920;-89
2023/03/25 13:33:44;;;;;;;;;;;;;;;10.75;nan;97749.38;4998133;28;19924;-88
2023/03/25 13:36:32;;;;;;;;;;;;;;;10.81;nan;97748.50;5015524;28;19923;-89
2023/03/25 13:39:29;;;;;;;;;;;;;;;10.99;nan;97750.97;5002243;28;19924;-91
2023/03/25 13:42:16;;;;;;;;;;;;;;;11.18;nan;97760.56;5017900;28;20390;-90
2023/03/25 13:45:03;;;;;;;;;;;;;;;11.27;nan;97762.63;5001591;28;20060;-89
2023/03/25 13:48:06;;;;;;;;;;;;;;;11.68;nan;97746.88;4999130;28;20026;-89
2023/03/25 13:50:50;;;;;;;;;;;;;;;11.66;nan;97763.91;4998385;28;19997;-90
2023/03/25 13:53:36;;;;;;;;;;;;;;;11.45;nan;97754.81;4998725;28;20355;-89
2023/03/25 13:56:20;;;;;;;;;;;;;;;11.66;nan;97759.44;4997695;28;20510;-88
2023/03/25 13:59:24;;;;;;;;;;;;;;;11.60;nan;97754.34;4997919;28;20459;-88
2023/03/25 14:02:14;;;;;;;;;;;;;;;11.60;nan;97759.59;4998792;28;20001;-89
2023/03/25 14:04:58;;;;;;;;;;;;;;;11.78;nan;97762.03;5000372;28;19976;-89
2023/03/25 14:07:55;;;;;;;;;;;;;;;11.56;nan;97775.03;5000504;28;19984;-89
2023/03/25 14:10:52;;;;;;;;;;;;;;;11.74;nan;97779.31;5013524;28;19920;-90
2023/03/25 14:13:50;;;;;;;;;;;;;;;11.93;nan;97785.22;5004654;28;20425;-90
2023/03/25 14:16:37;;;;;;;;;;;;;;;11.91;nan;97781.22;5002066;28;19920;-89
2023/03/25 14:19:47;;;;;;;;;;;;;;;11.88;nan;97792.19;5002180;28;20007;-90
2023/03/25 14:22:44;;;;;;;;;;;;;;;11.89;nan;97799.06;5001850;28;19920;-90
2023/03/25 14:25:30;;;;;;;;;;;;;;;11.70;nan;97801.84;5005736;28;19975;-90
2023/03/25 14:28:22;;;;;;;;;;;;;;;11.55;nan;97800.50;5007051;28;19924;-90
2023/03/25 14:31:12;;;;;;;;;;;;;;;11.51;nan;97794.09;5008013;28;19919;-89
2023/03/25 14:34:23;;;;;;;;;;;;;;;11.64;nan;97826.44;5018304;28;19952;-90
2023/03/25 14:37:16;;;;;;;;;;;;;;;11.94;nan;97807.03;5011766;28;19924;-89
2023/03/25 14:40:05;;;;;;;;;;;;;;;12.00;nan;97821.91;5008583;28;20324;-91
2023/03/25 14:43:03;;;;;;;;;;;;;;;12.00;nan;97811.38;5010811;28;19920;-89
2023/03/25 14:46:03;;;;;;;;;;;;;;;12.07;nan;97827.84;4990925;28;19952;-90
2023/03/25 14:49:03;;;;;;;;;;;;;;;12.08;nan;97813.66;4985216;28;19936;-90